Terminal Aerodrome Forecast
Issued by NWS

Home | Current Version | Previous Version | Text Only | Print | Product List | Glossary On
Versions: 1 2 3 4 5 6 7 8 9 10 11 12 13 14 15 16 17 18 19 20 21 22 23 24 25 26 27 28
229
FTUS42 KGSP 240919 AAC
TAFAND
TAF AMD
KAND 240919Z 2409/2506 06010KT 6SM -SHRA BR OVC004
      TEMPO 2410/2414 3SM -SHRA BR
     FM241500 10005KT 6SM BR OVC007
     FM241800 25008KT P6SM VCSH OVC015
     FM250000 29009KT P6SM BKN035=

USA.gov is the U.S. government's official web portal to all federal, state and local government web resources and services.